METAR UND TAF INFORMATION
EDFM 250750Z 15008KT 120V190 CAVOK 15/06 Q1010

 FLUGHAFENKARTE

 RUNWAY INFORMATION
Runway 09 Runway length 3497 ft Runway width 82 ft
Runway elevation 309 ft Runway displaced threshold 19 ft Runway heading 93
Runway 27 Runway length 3497 ft Runway width 82 ft
Runway elevation 306 ft Runway displaced threshold 174 ft Runway heading 273
Runway 09L Runway length 2297 ft Runway width 98 ft
Runway elevation 0 ft Runway displaced threshold 246 ft Runway heading 92
Runway 27R Runway length 2297 ft Runway width 98 ft
Runway elevation 0 ft Runway displaced threshold 82 ft Runway heading 272

 AIRPORT FREQUENCIES
Type APP Name COLEMAN AP Frequency 130.5 MHZ
Type ATIS Name ATIS Frequency 136.55 MHZ
Type CNTR Name LANGEN RAD Frequency 127.5 MHZ
Type INFO Name INFO Frequency 118.4 MHZ
Type TWR Name TWR Frequency 118.4 MHZ
Type TWR Name COLEMAN TW Frequency 122.1 MHZ

 AIRPORT NEAR NAVIGATION AIDS
Type DME Name Mannheim Frequency 113550 KHZ